Austin, TX (78725)

9:39 PM CDT on July 30, 2016 (GMT -0500)
Chaparral Crossing | | Change Station

Elev 440 ft 30.24 °N, 97.57 °W | Updated 16 seconds ago

Partly Cloudy
Partly Cloudy
85.6 °F
Feels Like 83 °F
N
0.4
Wind Variable Wind from SW
Gusts 2.5 mph

Today
High -- | Low -- °F
--% Chance of Precip.
Yesterday
High -- | Low -- °F
Precip. -- in
Pressure 29.90 in
Visibility 10.0 miles
Clouds Few 5500 ft
Few 25000 ft
Heat Index 83 °F
Dew Point 48 °F
Humidity 27%
Rainfall in
Snow Depth Not available.
6:48 AM 8:25 PM
Waning Crescent, 9% visible
METAR KAUS 310153Z 00000KT 10SM FEW055 FEW250 28/23 A2993 RMK AO2 SLP123 T02780233
Pressure 29.90 in
Visibility 10.0 miles
Clouds Few 5500 ft
Few 25000 ft
Heat Index 83 °F
Dew Point 48 °F
Humidity 27%
Rainfall in
Snow Depth Not available.
6:48 AM 8:25 PM
Waning Crescent, 9% visible
METAR KAUS 310153Z 00000KT 10SM FEW055 FEW250 28/23 A2993 RMK AO2 SLP123 T02780233

10-Day Weather Forecast

Almanac

Astronomy

Jul. 30, 2016 Rise Set
Actual Time
Civil Twilight
Nautical Twilight
Astronomical Twilight
Moon
Length of Visible Light
Length of Day
Tomorrow will be .
, % of the Moon is Illuminated

Today's Extremes

State Highs State Lows

Community

WunderPhotos

Upload Photos

1,928,714 photos uploaded!

WunderBlog® & News

Nearby

Air Quality

  Air Quality AQ Index Pollutant
Not available.

Snow Depth

Station Depth Elevation

Earthquake Activity

City Distance Mag. Time & Date
Minimum magnitude displayed is 2.5.

Coastal Water Temperatures

Place Temperature

Stations

Nearby Weather Stations

Station Location Temp. Windchill Dew Point Humidity Wind Precip. Elev Updated Type
                   

Watches & Warnings

There are currently no watches in effect.